createdAt,value
2019-03-10T00:00:30.164Z,10.91
2019-03-10T00:02:58.831Z,10.95
2019-03-10T00:05:27.355Z,10.87
2019-03-10T00:07:56.122Z,10.79
2019-03-10T00:10:24.760Z,10.71
2019-03-10T00:12:53.410Z,10.64
2019-03-10T00:15:22.072Z,10.55
2019-03-10T00:17:50.805Z,10.47
2019-03-10T00:20:19.435Z,10.40
2019-03-10T00:22:48.109Z,10.32
2019-03-10T00:25:16.855Z,10.25
2019-03-10T00:27:45.487Z,10.26
2019-03-10T00:30:16.057Z,10.32
2019-03-10T00:32:44.686Z,10.39
2019-03-10T00:35:13.538Z,10.42
2019-03-10T00:37:42.194Z,10.36
2019-03-10T00:40:45.752Z,10.44
2019-03-10T00:43:42.664Z,10.44
2019-03-10T00:46:40.138Z,10.34
2019-03-10T00:49:43.330Z,10.28
2019-03-10T00:52:17.904Z,10.16
2019-03-10T00:54:46.524Z,10.04
2019-03-10T00:57:15.154Z,10.05
2019-03-10T00:59:43.787Z,10.12
2019-03-10T01:02:12.386Z,10.12
2019-03-10T01:04:41.034Z,10.08
2019-03-10T01:07:09.654Z,10.03
2019-03-10T01:09:38.328Z,9.94
2019-03-10T01:12:07.052Z,9.93
2019-03-10T01:14:35.710Z,9.89
2019-03-10T01:17:04.470Z,9.94
2019-03-10T01:19:33.399Z,10.03
2019-03-10T01:22:02.530Z,9.93
2019-03-10T01:24:31.138Z,9.94
2019-03-10T01:26:59.779Z,10.07
2019-03-10T01:29:28.334Z,9.99
2019-03-10T01:32:14.695Z,9.98
2019-03-10T01:34:49.109Z,10.03
2019-03-10T01:37:17.669Z,10.05
2019-03-10T01:39:46.265Z,9.95
2019-03-10T01:42:14.819Z,9.79
2019-03-10T01:44:43.372Z,9.73
2019-03-10T01:47:12.045Z,9.69
2019-03-10T01:49:40.607Z,9.69
2019-03-10T01:52:09.094Z,9.74
2019-03-10T01:54:37.686Z,9.69
2019-03-10T01:57:06.309Z,9.69
2019-03-10T01:59:34.860Z,9.68
2019-03-10T02:02:03.467Z,9.73
2019-03-10T02:04:32.026Z,9.67
2019-03-10T02:07:00.651Z,9.59
2019-03-10T02:09:29.261Z,9.51
2019-03-10T02:11:57.814Z,9.51
2019-03-10T02:14:26.371Z,9.51
2019-03-10T02:16:55.040Z,9.56
2019-03-10T02:19:23.590Z,9.58
2019-03-10T02:21:52.173Z,9.60
2019-03-10T02:24:24.119Z,9.68
2019-03-10T02:26:51.058Z,9.70
2019-03-10T02:29:19.542Z,9.72
2019-03-10T02:31:48.246Z,9.71
2019-03-10T02:34:16.803Z,9.67
2019-03-10T02:36:45.375Z,9.67
2019-03-10T02:39:14.070Z,9.69
2019-03-10T02:41:42.662Z,9.68
2019-03-10T02:44:11.215Z,9.68
2019-03-10T02:46:39.763Z,9.68
2019-03-10T02:49:08.328Z,9.69
2019-03-10T02:51:36.961Z,9.70
2019-03-10T02:54:05.639Z,9.70
2019-03-10T02:56:34.122Z,9.78
2019-03-10T02:59:02.680Z,9.75
2019-03-10T03:01:31.353Z,9.70
2019-03-10T03:03:59.905Z,9.73
2019-03-10T03:06:28.535Z,9.77
2019-03-10T03:08:57.194Z,9.61
2019-03-10T03:11:25.703Z,9.36
2019-03-10T03:13:54.329Z,9.07
2019-03-10T03:16:22.994Z,8.85
2019-03-10T03:18:51.545Z,8.67
2019-03-10T03:21:20.041Z,8.52
2019-03-10T03:23:48.691Z,8.40
2019-03-10T03:26:17.466Z,8.23
2019-03-10T03:28:45.967Z,8.23
2019-03-10T03:31:14.588Z,8.33
2019-03-10T03:33:43.157Z,8.32
2019-03-10T03:36:17.402Z,8.29
2019-03-10T03:38:49.311Z,8.35
2019-03-10T03:41:23.420Z,8.42
2019-03-10T03:43:52.048Z,8.32
2019-03-10T03:46:20.651Z,8.33
2019-03-10T03:48:49.215Z,8.45
2019-03-10T03:51:17.831Z,8.47
2019-03-10T03:53:46.434Z,8.52
2019-03-10T03:56:14.929Z,8.48
2019-03-10T03:58:43.476Z,8.48
2019-03-10T04:01:22.711Z,8.45
2019-03-10T04:03:51.273Z,8.44
2019-03-10T04:06:20.096Z,8.42
2019-03-10T04:08:48.685Z,8.35
2019-03-10T04:11:17.309Z,8.47
2019-03-10T04:13:45.868Z,8.55
2019-03-10T04:16:14.434Z,8.55
2019-03-10T04:18:43.000Z,8.60
2019-03-10T04:21:11.599Z,8.78
2019-03-10T04:23:40.151Z,8.98
2019-03-10T04:26:08.777Z,9.06
2019-03-10T04:28:37.329Z,9.04
2019-03-10T04:31:05.819Z,8.94
2019-03-10T04:33:34.379Z,8.84
2019-03-10T04:36:03.009Z,8.83
2019-03-10T04:38:31.684Z,8.99
2019-03-10T04:41:00.199Z,9.03
2019-03-10T04:43:28.831Z,8.93
2019-03-10T04:45:57.489Z,8.77
2019-03-10T04:48:26.046Z,8.82
2019-03-10T04:50:54.549Z,8.76
2019-03-10T04:53:23.094Z,8.71
2019-03-10T04:55:56.064Z,8.63
2019-03-10T04:58:25.831Z,8.50
2019-03-10T05:00:56.026Z,8.47
2019-03-10T05:03:24.653Z,8.65
2019-03-10T05:05:53.265Z,8.88
2019-03-10T05:08:21.894Z,9.12
2019-03-10T05:10:50.463Z,9.37
2019-03-10T05:13:19.052Z,9.73
2019-03-10T05:15:47.680Z,9.83
2019-03-10T05:18:16.363Z,9.78
2019-03-10T05:20:44.945Z,9.72
2019-03-10T05:23:28.694Z,9.57
2019-03-10T05:25:57.562Z,9.41
2019-03-10T05:28:26.186Z,9.38
2019-03-10T05:30:54.755Z,9.34
2019-03-10T05:33:23.354Z,9.46
2019-03-10T05:35:51.984Z,9.46
2019-03-10T05:38:20.545Z,9.42
2019-03-10T05:40:49.155Z,9.35
2019-03-10T05:43:17.715Z,9.45
2019-03-10T05:45:46.210Z,9.62
2019-03-10T05:48:14.817Z,9.73
2019-03-10T05:50:43.481Z,9.78
2019-03-10T05:53:12.109Z,9.76
2019-03-10T05:55:40.776Z,9.91
2019-03-10T05:58:09.352Z,9.99
2019-03-10T06:00:42.743Z,10.59
2019-03-10T06:03:08.308Z,11.42
2019-03-10T06:05:36.808Z,12.06
2019-03-10T06:08:05.520Z,12.95
2019-03-10T06:10:34.192Z,13.44
2019-03-10T06:13:02.816Z,13.90
2019-03-10T06:15:31.365Z,14.09
2019-03-10T06:17:59.977Z,14.89
2019-03-10T06:20:28.536Z,14.84
2019-03-10T06:22:57.154Z,14.80
2019-03-10T06:25:25.832Z,15.17
2019-03-10T06:27:54.463Z,15.62
2019-03-10T06:30:22.962Z,16.20
2019-03-10T06:32:51.564Z,16.59
2019-03-10T06:35:20.191Z,16.75
2019-03-10T06:37:48.761Z,16.96
2019-03-10T06:40:17.374Z,16.97
2019-03-10T06:42:45.932Z,17.29
2019-03-10T06:45:14.584Z,16.96
2019-03-10T06:47:43.184Z,17.28
2019-03-10T06:50:12.572Z,17.22
2019-03-10T06:52:41.318Z,16.93
2019-03-10T06:55:09.982Z,17.09
2019-03-10T06:57:38.541Z,17.41
2019-03-10T07:00:10.090Z,17.43
2019-03-10T07:02:38.687Z,17.67
2019-03-10T07:05:09.518Z,17.27
2019-03-10T07:07:38.148Z,17.20
2019-03-10T07:10:12.457Z,17.06
2019-03-10T07:12:41.047Z,16.72
2019-03-10T07:15:11.676Z,17.41
2019-03-10T07:17:40.357Z,17.47
2019-03-10T07:20:14.899Z,17.32
2019-03-10T07:23:00.982Z,17.03
2019-03-10T07:25:29.576Z,16.51
2019-03-10T07:28:06.002Z,16.57
2019-03-10T07:30:39.065Z,17.00
2019-03-10T07:33:12.232Z,17.52
2019-03-10T07:35:58.998Z,17.36
2019-03-10T07:38:29.199Z,16.80
2019-03-10T07:40:59.397Z,17.10
2019-03-10T07:43:35.411Z,17.37
2019-03-10T07:46:11.635Z,17.79
2019-03-10T07:48:41.882Z,18.15
2019-03-10T07:51:21.124Z,18.69
2019-03-10T07:53:51.337Z,18.84
2019-03-10T07:56:27.586Z,18.83
2019-03-10T07:59:13.007Z,18.52
2019-03-10T08:01:48.928Z,17.99
2019-03-10T08:04:24.890Z,18.01
2019-03-10T08:06:55.162Z,18.19
2019-03-10T08:09:28.010Z,18.25
2019-03-10T08:11:58.210Z,18.07
2019-03-10T08:14:34.420Z,18.43
2019-03-10T08:17:04.742Z,18.52
2019-03-10T08:19:41.170Z,18.79
2019-03-10T08:22:14.508Z,19.33
2019-03-10T08:24:44.761Z,19.26
2019-03-10T08:27:20.499Z,19.10
2019-03-10T08:30:06.909Z,19.10
2019-03-10T08:32:46.267Z,19.49
2019-03-10T08:35:19.198Z,19.65
2019-03-10T08:37:49.337Z,19.91
2019-03-10T08:40:31.579Z,20.02
2019-03-10T08:43:05.022Z,19.54
2019-03-10T08:45:38.214Z,19.14
2019-03-10T08:48:17.380Z,19.57
2019-03-10T08:50:50.281Z,19.13
2019-03-10T08:53:32.187Z,19.17
2019-03-10T08:56:17.592Z,18.78
2019-03-10T08:58:59.525Z,19.00
2019-03-10T09:01:35.656Z,18.98
2019-03-10T09:04:05.929Z,19.03
2019-03-10T09:06:36.132Z,18.87
2019-03-10T09:09:08.441Z,18.48
2019-03-10T09:11:44.884Z,18.48
2019-03-10T09:14:15.052Z,18.78
2019-03-10T09:17:00.669Z,18.51
2019-03-10T09:19:30.981Z,18.23
2019-03-10T09:22:03.593Z,18.12
2019-03-10T09:24:45.932Z,17.75
2019-03-10T09:27:16.145Z,17.74
2019-03-10T09:29:52.416Z,18.17
2019-03-10T09:32:36.774Z,18.04
2019-03-10T09:35:24.049Z,18.02
2019-03-10T09:38:09.152Z,17.56
2019-03-10T09:40:39.422Z,17.47
2019-03-10T09:43:18.504Z,17.67
2019-03-10T09:45:48.832Z,17.94
2019-03-10T09:48:31.388Z,18.12
2019-03-10T09:51:10.415Z,18.31
2019-03-10T09:53:46.685Z,18.18
2019-03-10T09:56:19.628Z,17.83
2019-03-10T09:58:49.933Z,17.63
2019-03-10T10:01:20.066Z,17.90
2019-03-10T10:03:50.263Z,17.68
2019-03-10T10:06:36.979Z,17.81
2019-03-10T10:09:25.515Z,17.92
2019-03-10T10:12:12.697Z,17.79
2019-03-10T10:14:33.702Z,18.02
2019-03-10T10:17:04.024Z,18.16
2019-03-10T10:19:49.489Z,18.51
2019-03-10T10:22:25.564Z,18.74
2019-03-10T10:24:58.677Z,18.64
2019-03-10T10:27:31.822Z,18.37
2019-03-10T10:30:05.241Z,18.26
2019-03-10T10:32:47.671Z,18.04
2019-03-10T10:35:17.879Z,18.04
2019-03-10T10:38:06.315Z,18.16
2019-03-10T10:40:54.533Z,18.09
2019-03-10T10:43:36.487Z,18.24
2019-03-10T10:46:23.252Z,18.29
2019-03-10T10:48:53.572Z,18.42
2019-03-10T10:51:27.034Z,18.46
2019-03-10T10:54:12.680Z,18.41
2019-03-10T10:56:42.941Z,18.32
2019-03-10T10:59:25.246Z,18.30
2019-03-10T11:01:55.504Z,18.27
2019-03-10T11:04:37.835Z,18.39
2019-03-10T11:07:08.046Z,18.25
2019-03-10T11:09:56.651Z,18.40
2019-03-10T11:12:29.903Z,18.56
2019-03-10T11:15:09.194Z,18.53
2019-03-10T11:17:42.124Z,18.50
2019-03-10T11:20:21.815Z,18.52
2019-03-10T11:22:52.005Z,18.57
2019-03-10T11:25:25.291Z,18.74
2019-03-10T11:27:55.538Z,18.97
2019-03-10T11:30:44.067Z,18.89
2019-03-10T11:33:27.666Z,18.90
2019-03-10T11:36:14.432Z,18.87
2019-03-10T11:38:44.680Z,19.03
2019-03-10T11:41:33.814Z,19.20
2019-03-10T11:44:01.870Z,19.34
2019-03-10T11:46:35.112Z,19.41
2019-03-10T11:49:17.406Z,19.26
2019-03-10T11:51:50.375Z,19.44
2019-03-10T11:54:29.612Z,19.46
2019-03-10T11:57:16.072Z,19.33
2019-03-10T11:59:46.318Z,19.44
2019-03-10T12:02:19.560Z,19.62
2019-03-10T12:04:56.559Z,19.56
2019-03-10T12:07:41.463Z,19.11
2019-03-10T12:10:12.935Z,19.04
2019-03-10T12:12:41.622Z,18.96
2019-03-10T12:15:12.839Z,19.10
2019-03-10T12:17:41.327Z,19.32
2019-03-10T12:20:12.305Z,19.51
2019-03-10T12:22:40.939Z,19.62
2019-03-10T12:25:13.944Z,19.63
2019-03-10T12:27:42.527Z,19.46
2019-03-10T12:30:13.254Z,19.34
2019-03-10T12:32:41.836Z,19.46
2019-03-10T12:35:10.511Z,19.57
2019-03-10T12:37:39.137Z,19.73
2019-03-10T12:40:12.338Z,19.90
2019-03-10T12:42:41.020Z,19.99
2019-03-10T12:45:11.342Z,20.08
2019-03-10T12:47:49.281Z,20.01
2019-03-10T12:50:18.851Z,20.06
2019-03-10T12:52:47.737Z,20.02
2019-03-10T12:55:16.373Z,20.06
2019-03-10T12:57:45.001Z,20.24
2019-03-10T13:00:15.756Z,20.23
2019-03-10T13:02:44.386Z,20.23
2019-03-10T13:05:13.022Z,20.20
2019-03-10T13:07:41.695Z,20.37
2019-03-10T13:10:12.601Z,20.23
2019-03-10T13:12:40.679Z,20.06
2019-03-10T13:15:13.222Z,20.07
2019-03-10T13:17:41.851Z,20.23
2019-03-10T13:20:11.876Z,20.30
2019-03-10T13:22:40.615Z,20.15
2019-03-10T13:25:12.576Z,20.05
2019-03-10T13:27:41.344Z,19.99
2019-03-10T13:30:12.486Z,20.06
2019-03-10T13:32:41.171Z,19.98
2019-03-10T13:35:10.335Z,20.04
2019-03-10T13:37:38.899Z,20.01
2019-03-10T13:40:10.304Z,20.11
2019-03-10T13:42:38.913Z,20.04
2019-03-10T13:45:10.451Z,20.01
2019-03-10T13:47:45.009Z,20.03
2019-03-10T13:50:15.711Z,20.18
2019-03-10T13:52:44.436Z,20.19
2019-03-10T13:55:13.213Z,20.22
2019-03-10T13:57:41.775Z,20.20
2019-03-10T14:00:20.554Z,20.33
2019-03-10T14:02:49.181Z,20.37
2019-03-10T14:05:17.749Z,20.34
2019-03-10T14:07:46.429Z,20.24
2019-03-10T14:10:15.220Z,20.40
2019-03-10T14:12:43.849Z,20.27
2019-03-10T14:15:16.711Z,20.33
2019-03-10T14:17:45.272Z,20.44
2019-03-10T14:20:15.332Z,20.34
2019-03-10T14:22:43.988Z,20.28
2019-03-10T14:25:14.321Z,20.31
2019-03-10T14:27:42.952Z,20.40
2019-03-10T14:30:16.806Z,20.26
2019-03-10T14:32:45.369Z,20.13
2019-03-10T14:35:14.703Z,19.87
2019-03-10T14:37:43.364Z,19.56
2019-03-10T14:40:19.859Z,19.48
2019-03-10T14:42:48.534Z,19.48
2019-03-10T14:45:18.267Z,19.34
2019-03-10T14:47:46.894Z,19.37
2019-03-10T14:50:17.586Z,19.28
2019-03-10T14:52:46.218Z,19.10
2019-03-10T14:55:20.595Z,19.03
2019-03-10T14:57:49.272Z,19.05
2019-03-10T15:00:21.042Z,18.95
2019-03-10T15:02:49.715Z,18.98
2019-03-10T15:05:18.403Z,19.12
2019-03-10T15:07:47.031Z,19.10
2019-03-10T15:10:16.069Z,19.17
2019-03-10T15:12:44.944Z,19.19
2019-03-10T15:15:22.202Z,19.25
2019-03-10T15:17:46.012Z,19.22
2019-03-10T15:20:16.095Z,19.20
2019-03-10T15:22:44.728Z,19.10
2019-03-10T15:25:15.712Z,19.11
2019-03-10T15:27:44.233Z,19.11
2019-03-10T15:30:15.771Z,18.96
2019-03-10T15:32:44.415Z,18.85
2019-03-10T15:35:13.727Z,18.79
2019-03-10T15:37:42.354Z,18.78
2019-03-10T15:40:16.808Z,18.64
2019-03-10T15:42:45.598Z,18.51
2019-03-10T15:45:16.266Z,18.43
2019-03-10T15:47:45.097Z,18.41
2019-03-10T15:50:19.114Z,18.40
2019-03-10T15:52:47.760Z,18.30
2019-03-10T15:55:16.315Z,18.22
2019-03-10T15:57:50.174Z,18.20
2019-03-10T16:00:17.639Z,18.14
2019-03-10T16:02:46.268Z,18.03
2019-03-10T16:05:14.936Z,17.98
2019-03-10T16:07:43.596Z,17.91
2019-03-10T16:10:14.335Z,17.80
2019-03-10T16:12:43.177Z,17.70
2019-03-10T16:15:20.284Z,17.62
2019-03-10T16:17:48.925Z,17.57
2019-03-10T16:20:17.652Z,17.40
2019-03-10T16:22:46.339Z,17.35
2019-03-10T16:25:16.267Z,17.36
2019-03-10T16:27:44.894Z,17.22
2019-03-10T16:30:27.327Z,17.18
2019-03-10T16:32:55.985Z,17.09
2019-03-10T16:35:24.720Z,17.05
2019-03-10T16:37:53.391Z,17.00
2019-03-10T16:40:22.536Z,16.92
2019-03-10T16:42:51.108Z,16.94
2019-03-10T16:45:23.564Z,16.94
2019-03-10T16:47:52.398Z,16.85
2019-03-10T16:50:23.184Z,16.68
2019-03-10T16:52:51.857Z,16.64
2019-03-10T16:55:20.590Z,16.69
2019-03-10T16:57:49.317Z,16.48
2019-03-10T17:00:20.149Z,16.50
2019-03-10T17:02:49.378Z,16.56
2019-03-10T17:05:21.752Z,16.56
2019-03-10T17:07:50.623Z,16.56
2019-03-10T17:10:23.750Z,16.55
2019-03-10T17:12:52.381Z,16.48
2019-03-10T17:15:24.735Z,16.62
2019-03-10T17:17:53.469Z,16.51
2019-03-10T17:20:22.301Z,16.59
2019-03-10T17:22:50.943Z,16.68
2019-03-10T17:25:19.526Z,16.66
2019-03-10T17:27:48.215Z,16.64
2019-03-10T17:30:19.762Z,16.69
2019-03-10T17:32:48.388Z,16.73
2019-03-10T17:35:19.071Z,16.81
2019-03-10T17:37:48.679Z,16.81
2019-03-10T17:40:18.814Z,16.86
2019-03-10T17:42:47.484Z,16.95
2019-03-10T17:45:20.459Z,16.92
2019-03-10T17:47:49.027Z,16.92
2019-03-10T17:50:18.898Z,16.92
2019-03-10T17:52:48.330Z,16.93
2019-03-10T17:55:19.105Z,16.93
2019-03-10T17:57:47.980Z,16.89
2019-03-10T18:00:22.027Z,16.89
2019-03-10T18:02:50.586Z,16.88
2019-03-10T18:05:19.259Z,16.91
2019-03-10T18:07:48.094Z,16.89
2019-03-10T18:10:18.505Z,16.83
2019-03-10T18:12:47.186Z,16.80
2019-03-10T18:15:17.890Z,16.84
2019-03-10T18:17:46.527Z,16.85
2019-03-10T18:20:16.891Z,16.84
2019-03-10T18:22:48.390Z,16.88
2019-03-10T18:25:17.234Z,16.92
2019-03-10T18:27:45.900Z,17.01
2019-03-10T18:30:27.515Z,17.06
2019-03-10T18:32:56.171Z,17.09
2019-03-10T18:35:24.856Z,17.08
2019-03-10T18:37:53.487Z,17.06
2019-03-10T18:40:26.142Z,17.06
2019-03-10T18:42:54.903Z,17.09
2019-03-10T18:45:23.537Z,17.06
2019-03-10T18:47:52.178Z,17.03
2019-03-10T18:50:24.424Z,17.03
2019-03-10T18:52:53.130Z,17.03
2019-03-10T18:55:22.086Z,16.99
2019-03-10T18:57:50.771Z,16.95
2019-03-10T19:00:21.945Z,16.92
2019-03-10T19:02:50.703Z,16.83
2019-03-10T19:05:19.363Z,16.79
2019-03-10T19:07:48.001Z,16.74
2019-03-10T19:10:16.640Z,16.70
2019-03-10T19:12:45.422Z,16.72
2019-03-10T19:15:21.506Z,16.70
2019-03-10T19:17:50.208Z,16.61
2019-03-10T19:20:18.910Z,16.59
2019-03-10T19:22:47.548Z,16.54
2019-03-10T19:25:17.123Z,16.51
2019-03-10T19:27:45.772Z,16.37
2019-03-10T19:30:22.287Z,16.44
2019-03-10T19:32:50.933Z,16.38
2019-03-10T19:35:19.654Z,16.31
2019-03-10T19:37:48.454Z,16.03
2019-03-10T19:40:24.711Z,15.88
2019-03-10T19:42:53.395Z,15.69
2019-03-10T19:45:25.188Z,15.63
2019-03-10T19:47:53.775Z,15.49
2019-03-10T19:50:27.959Z,15.36
2019-03-10T19:52:56.654Z,15.36
2019-03-10T19:55:25.282Z,15.40
2019-03-10T19:57:53.916Z,15.54
2019-03-10T20:00:22.881Z,15.70
2019-03-10T20:02:51.429Z,15.81
2019-03-10T20:05:20.069Z,15.84
2019-03-10T20:07:48.732Z,15.91
2019-03-10T20:10:24.130Z,15.93
2019-03-10T20:12:52.912Z,16.01
2019-03-10T20:15:22.781Z,15.99
2019-03-10T20:17:51.414Z,15.92
2019-03-10T20:20:25.714Z,15.84
2019-03-10T20:22:54.240Z,15.81
2019-03-10T20:25:22.875Z,15.71
2019-03-10T20:27:51.534Z,15.63
2019-03-10T20:30:29.677Z,15.60
2019-03-10T20:32:58.317Z,15.60
2019-03-10T20:35:26.881Z,15.65
2019-03-10T20:37:55.558Z,15.64
2019-03-10T20:40:25.716Z,15.69
2019-03-10T20:42:54.347Z,15.55
2019-03-10T20:45:24.494Z,15.50
2019-03-10T20:47:56.053Z,15.45
2019-03-10T20:50:23.673Z,15.51
2019-03-10T20:52:53.052Z,15.40
2019-03-10T20:55:21.629Z,15.41
2019-03-10T20:57:50.190Z,15.48
2019-03-10T21:00:23.506Z,15.51
2019-03-10T21:02:52.229Z,15.47
2019-03-10T21:05:20.798Z,15.47
2019-03-10T21:07:49.416Z,15.48
2019-03-10T21:10:20.382Z,15.36
2019-03-10T21:12:48.999Z,15.30
2019-03-10T21:15:18.866Z,15.18
2019-03-10T21:17:47.432Z,15.21
2019-03-10T21:20:17.566Z,15.31
2019-03-10T21:22:46.346Z,15.22
2019-03-10T21:25:23.223Z,15.16
2019-03-10T21:27:51.850Z,15.12
2019-03-10T21:30:25.986Z,15.03
2019-03-10T21:32:54.614Z,15.01
2019-03-10T21:35:23.288Z,14.96
2019-03-10T21:37:51.800Z,14.94
2019-03-10T21:40:26.241Z,14.89
2019-03-10T21:42:54.904Z,14.78
2019-03-10T21:45:23.539Z,14.73
2019-03-10T21:47:52.168Z,14.67
2019-03-10T21:50:27.112Z,14.56
2019-03-10T21:52:55.744Z,14.61
2019-03-10T21:55:24.380Z,14.38
2019-03-10T21:57:53.049Z,14.35
2019-03-10T22:00:21.611Z,14.22
2019-03-10T22:02:50.200Z,14.27
2019-03-10T22:05:18.973Z,14.13
2019-03-10T22:07:47.616Z,14.16
2019-03-10T22:10:26.101Z,14.18
2019-03-10T22:12:48.266Z,14.25
2019-03-10T22:15:21.405Z,14.16
2019-03-10T22:17:50.025Z,14.07
2019-03-10T22:20:20.559Z,14.06
2019-03-10T22:22:50.182Z,13.98
2019-03-10T22:25:19.061Z,13.89
2019-03-10T22:27:47.730Z,13.80
2019-03-10T22:30:19.350Z,13.74
2019-03-10T22:32:48.056Z,13.76
2019-03-10T22:35:16.741Z,13.60
2019-03-10T22:37:45.500Z,13.56
2019-03-10T22:40:15.336Z,13.50
2019-03-10T22:42:44.008Z,13.40
2019-03-10T22:45:16.610Z,13.39
2019-03-10T22:47:45.102Z,13.31
2019-03-10T22:50:14.584Z,13.28
2019-03-10T22:52:43.311Z,13.28
2019-03-10T22:55:14.971Z,13.08
2019-03-10T22:57:43.587Z,13.02
2019-03-10T23:00:27.785Z,12.95
2019-03-10T23:02:56.527Z,12.90
2019-03-10T23:05:25.019Z,12.86
2019-03-10T23:07:53.507Z,12.79
2019-03-10T23:10:22.176Z,12.77
2019-03-10T23:12:50.672Z,12.78
2019-03-10T23:15:19.335Z,12.75
2019-03-10T23:17:47.981Z,12.69
2019-03-10T23:20:17.118Z,12.75
2019-03-10T23:22:45.674Z,12.59
2019-03-10T23:25:14.461Z,12.57
2019-03-10T23:27:43.274Z,12.53
2019-03-10T23:30:17.873Z,12.55
2019-03-10T23:32:46.554Z,12.55
2019-03-10T23:35:15.526Z,12.48
2019-03-10T23:37:44.151Z,12.45
2019-03-10T23:40:15.100Z,12.50
2019-03-10T23:42:43.723Z,12.47
2019-03-10T23:45:17.092Z,12.51
2019-03-10T23:47:45.770Z,12.52
2019-03-10T23:50:16.016Z,12.49
2019-03-10T23:52:44.648Z,12.53
2019-03-10T23:55:14.029Z,12.58
2019-03-10T23:57:42.578Z,12.54
